Time;durP1;ratioP1;P1;durP2;ratioP2;P2;SDS_P1;SDS_P2;PMS_P1;PMS_P2;Temp;Humidity;BMP_temperature;BMP_pressure;BME280_temperature;BME280_humidity;BME280_pressure;Samples;Min_cycle;Max_cycle;Signal;HPM_P1;HPM_P2
2021/04/15 10:18:06;;;;;;;15.02;7.91;;;;;;;16.44;39.11;99344.90;369334;141;879979;-62
2021/04/15 10:19:35;;;;;;;7.56;5.11;;;;;;;16.42;37.94;99346.70;361732;147;857276;-62
2021/04/15 10:20:59;;;;;;;9.43;6.92;;;;;;;16.38;37.79;99345.13;363266;147;858778;-59
2021/04/15 10:22:22;;;;;;;8.50;6.76;;;;;;;16.36;37.70;99332.14;364482;146;857240;-62
2021/04/15 10:23:31;;;;;;;10.34;7.44;;;;;;;16.32;36.63;99339.24;363731;147;857244;-63
2021/04/15 10:24:42;;;;;;;9.62;7.24;;;;;;;16.39;37.22;99338.98;362615;146;858837;-63
2021/04/15 10:26:01;;;;;;;8.26;5.69;;;;;;;16.43;36.87;99336.20;363550;147;856233;-63
2021/04/15 10:27:23;;;;;;;11.18;7.97;;;;;;;16.46;36.82;99337.84;365649;147;856187;-64
2021/04/15 10:28:55;;;;;;;10.62;8.18;;;;;;;16.48;37.60;99347.30;364765;147;856289;-63
2021/04/15 10:30:15;;;;;;;9.02;7.78;;;;;;;16.48;36.85;99338.63;363560;147;856920;-63
2021/04/15 10:31:36;;;;;;;11.34;7.81;;;;;;;16.55;36.94;99340.07;363630;147;856295;-63
2021/04/15 10:33:02;;;;;;;7.77;6.34;;;;;;;16.64;36.67;99341.42;363913;146;856220;-63
2021/04/15 10:34:23;;;;;;;9.12;6.92;;;;;;;16.74;36.55;99339.28;359849;146;856180;-63
2021/04/15 10:35:48;;;;;;;7.58;6.19;;;;;;;16.78;36.66;99338.23;362357;146;856239;-63
2021/04/15 10:37:02;;;;;;;10.62;6.49;;;;;;;16.82;36.64;99346.77;364940;147;856212;-64
2021/04/15 10:38:38;;;;;;;8.24;5.71;;;;;;;16.81;36.86;99335.48;344497;153;856402;-63
2021/04/15 10:40:06;;;;;;;8.67;6.37;;;;;;;16.69;35.36;99333.40;362984;147;856302;-64
2021/04/15 10:41:42;;;;;;;9.94;7.16;;;;;;;16.51;35.70;99343.73;364574;146;856374;-60
2021/04/15 10:42:48;;;;;;;11.87;7.50;;;;;;;16.45;36.43;99342.20;344523;154;860438;-61
2021/04/15 10:44:28;;;;;;;11.22;8.17;;;;;;;16.45;36.73;99343.98;344441;153;857027;-61
2021/04/15 10:45:54;;;;;;;11.98;7.36;;;;;;;16.42;36.72;99338.86;343807;154;858393;-62
2021/04/15 10:47:19;;;;;;;12.56;8.62;;;;;;;16.39;36.86;99339.85;341900;153;857707;-63
2021/04/15 10:48:33;;;;;;;9.92;7.41;;;;;;;16.45;36.56;99336.98;332578;155;857422;-61
2021/04/15 10:49:41;;;;;;;10.45;7.73;;;;;;;16.59;36.47;99341.64;363331;146;857167;-61
2021/04/15 10:50:54;;;;;;;11.61;7.71;;;;;;;16.70;36.05;99349.00;363081;146;856936;-61
2021/04/15 10:52:28;;;;;;;10.63;8.03;;;;;;;16.77;36.03;99341.76;362076;146;857357;-61
2021/04/15 10:53:46;;;;;;;7.61;6.41;;;;;;;16.86;36.20;99343.11;362598;146;859806;-61
2021/04/15 10:54:48;;;;;;;7.52;6.11;;;;;;;16.89;34.38;99340.36;361433;147;856795;-62
2021/04/15 10:55:52;;;;;;;8.49;6.10;;;;;;;16.84;35.31;99340.58;365368;147;856316;-62
2021/04/15 10:57:01;;;;;;;9.84;6.62;;;;;;;16.79;35.02;99335.53;361244;147;864078;-62
2021/04/15 10:58:24;;;;;;;10.69;6.22;;;;;;;16.75;34.57;99340.98;360762;147;856416;-62
2021/04/15 10:59:37;;;;;;;8.93;6.66;;;;;;;16.67;34.59;99340.45;364546;147;857350;-62
2021/04/15 11:00:38;;;;;;;6.67;5.71;;;;;;;16.62;34.94;99338.02;363453;146;856416;-62
2021/04/15 11:01:45;;;;;;;7.56;5.64;;;;;;;16.60;34.51;99339.86;362199;147;856229;-61
2021/04/15 11:02:53;;;;;;;9.69;5.68;;;;;;;16.56;34.32;99341.77;362336;147;863612;-62
2021/04/15 11:04:01;;;;;;;8.45;5.96;;;;;;;16.50;33.42;99340.25;360999;146;863856;-62
2021/04/15 11:05:21;;;;;;;7.86;6.14;;;;;;;16.47;34.45;99334.32;362607;147;856276;-61
2021/04/15 11:06:47;;;;;;;8.14;6.11;;;;;;;16.46;34.16;99336.06;363948;146;856306;-62
2021/04/15 11:07:50;;;;;;;10.16;6.64;;;;;;;16.46;34.17;99336.06;363032;147;856365;-62
2021/04/15 11:08:51;;;;;;;9.37;6.51;;;;;;;16.48;34.37;99336.02;363968;147;856469;-61
2021/04/15 11:09:56;;;;;;;8.14;5.86;;;;;;;16.52;34.71;99334.97;363020;147;856921;-62
2021/04/15 11:11:11;;;;;;;9.84;6.11;;;;;;;16.50;34.10;99342.03;362981;146;863726;-62
2021/04/15 11:12:17;;;;;;;9.01;6.42;;;;;;;16.43;34.30;99341.42;358248;149;856858;-61
2021/04/15 11:13:21;;;;;;;6.68;5.69;;;;;;;16.38;34.31;99337.28;361963;147;856344;-61
2021/04/15 11:14:26;;;;;;;8.36;5.78;;;;;;;16.31;35.08;99348.00;356533;149;856762;-61
2021/04/15 11:15:43;;;;;;;10.28;6.70;;;;;;;16.29;35.21;99336.76;348370;151;864755;-62
2021/04/15 11:16:49;;;;;;;9.93;7.13;;;;;;;16.29;35.70;99341.98;355294;149;856527;-62
2021/04/15 11:17:54;;;;;;;8.16;5.98;;;;;;;16.30;35.78;99343.68;361579;146;856862;-63
2021/04/15 11:18:58;;;;;;;6.97;6.01;;;;;;;16.33;35.40;99343.55;360005;147;856250;-62
2021/04/15 11:20:23;;;;;;;9.99;6.53;;;;;;;16.36;35.09;99334.75;351004;151;863826;-62
2021/04/15 11:21:28;;;;;;;13.89;7.71;;;;;;;16.39;35.45;99333.77;355655;149;856373;-62
2021/04/15 11:22:31;;;;;;;11.04;6.84;;;;;;;16.52;35.88;99339.34;360931;148;856331;-62
2021/04/15 11:23:33;;;;;;;17.32;9.24;;;;;;;16.57;36.09;99335.63;361606;147;856328;-62
2021/04/15 11:24:34;;;;;;;10.93;7.62;;;;;;;16.59;36.83;99338.16;360456;149;864385;-62
2021/04/15 11:25:47;;;;;;;12.74;8.67;;;;;;;16.54;36.11;99327.05;359761;149;856340;-61
2021/04/15 11:26:52;;;;;;;11.85;7.89;;;;;;;16.54;36.11;99327.05;361454;148;863794;-61
2021/04/15 11:27:54;;;;;;;13.18;8.79;;;;;;;16.54;35.72;99334.89;358295;149;856322;-61
2021/04/15 11:28:57;;;;;;;13.45;9.28;;;;;;;16.47;35.98;99335.16;358158;147;856227;-62
2021/04/15 11:29:59;;;;;;;13.74;8.33;;;;;;;16.45;36.06;99336.15;357560;149;856311;-62
2021/04/15 11:31:13;;;;;;;14.96;9.15;;;;;;;16.41;36.38;99330.19;359057;148;856491;-61
2021/04/15 11:32:37;;;;;;;12.31;8.73;;;;;;;16.40;36.59;99331.10;358991;147;856510;-62
2021/04/15 11:33:42;;;;;;;12.95;9.01;;;;;;;16.38;37.11;99330.31;355748;148;856395;-63
2021/04/15 11:34:44;;;;;;;14.78;9.51;;;;;;;16.38;37.49;99332.06;353371;152;856809;-62
2021/04/15 11:35:46;;;;;;;12.96;9.46;;;;;;;16.37;37.72;99326.00;349824;151;856272;-62
2021/04/15 11:36:59;;;;;;;13.98;8.94;;;;;;;16.38;37.90;99324.22;345682;153;863956;-63
2021/04/15 11:38:17;;;;;;;14.31;8.72;;;;;;;16.44;38.09;99326.61;341118;150;856484;-63
2021/04/15 11:39:21;;;;;;;15.30;8.28;;;;;;;16.49;38.00;99322.87;353386;149;856423;-63
2021/04/15 11:40:36;;;;;;;15.92;9.56;;;;;;;16.54;38.14;99324.44;359597;149;856225;-63
2021/04/15 11:41:55;;;;;;;11.81;8.69;;;;;;;16.57;38.05;99326.92;355255;148;856845;-63
2021/04/15 11:42:59;;;;;;;15.17;9.23;;;;;;;16.59;37.66;99318.12;357396;149;856942;-63
2021/04/15 11:44:09;;;;;;;13.01;9.14;;;;;;;16.58;37.73;99324.26;359418;149;856419;-63
2021/04/15 11:45:13;;;;;;;10.89;8.55;;;;;;;16.59;37.53;99327.70;358484;149;857122;-63
2021/04/15 11:46:19;;;;;;;13.23;8.34;;;;;;;16.53;37.56;99320.13;359521;149;856255;-63
2021/04/15 11:47:28;;;;;;;13.22;8.95;;;;;;;16.54;37.81;99317.47;358219;148;856573;-63
2021/04/15 11:48:30;;;;;;;13.09;8.21;;;;;;;16.57;37.92;99322.56;357387;148;856362;-62
2021/04/15 11:49:37;;;;;;;15.14;9.09;;;;;;;16.60;37.94;99318.95;354638;149;856292;-62
2021/04/15 11:50:41;;;;;;;12.87;9.41;;;;;;;16.59;38.04;99318.12;358440;148;856973;-62
2021/04/15 11:52:09;;;;;;;12.97;8.75;;;;;;;16.58;38.25;99326.88;359971;147;856968;-62
2021/04/15 11:53:39;;;;;;;13.88;8.84;;;;;;;16.56;38.50;99320.86;359051;147;856510;-63
2021/04/15 11:54:47;;;;;;;13.64;9.12;;;;;;;16.53;38.46;99320.99;362071;147;856634;-62
2021/04/15 11:55:48;;;;;;;13.53;9.54;;;;;;;16.56;38.42;99326.09;358568;148;856257;-62
2021/04/15 11:56:50;;;;;;;15.80;9.84;;;;;;;16.58;38.38;99324.26;358772;149;856289;-62
2021/04/15 11:59:42;;;;;;;12.56;7.98;;;;;;;16.78;38.13;99320.77;371906;142;875353;-62
2021/04/15 12:00:44;;;;;;;12.20;9.07;;;;;;;16.68;37.74;99323.86;363709;146;858095;-62
2021/04/15 12:01:47;;;;;;;13.17;9.01;;;;;;;16.65;37.91;99328.30;362896;147;857431;-62
2021/04/15 12:03:01;;;;;;;11.73;9.10;;;;;;;16.65;38.01;99323.08;363821;146;856606;-62
2021/04/15 12:04:05;;;;;;;10.79;8.49;;;;;;;16.66;37.86;99326.52;364400;147;856826;-62
2021/04/15 12:05:29;;;;;;;13.38;8.54;;;;;;;16.62;37.45;99328.44;365505;146;856919;-62
2021/04/15 12:06:58;;;;;;;12.43;7.96;;;;;;;16.61;37.67;99320.65;361166;147;856293;-62
2021/04/15 12:08:09;;;;;;;13.28;8.64;;;;;;;16.60;38.01;99329.41;364525;146;856909;-62
2021/04/15 12:09:13;;;;;;;12.34;8.69;;;;;;;16.61;37.91;99325.88;358384;150;856490;-62
2021/04/15 12:10:15;;;;;;;14.24;9.21;;;;;;;16.62;37.94;99328.44;358128;147;856315;-62
2021/04/15 12:11:26;;;;;;;15.41;9.16;;;;;;;16.62;38.35;99325.83;357560;149;856260;-62
2021/04/15 12:12:39;;;;;;;15.91;10.24;;;;;;;16.62;37.98;99325.83;353214;152;856901;-61
2021/04/15 12:13:49;;;;;;;14.24;9.16;;;;;;;16.62;38.01;99330.19;361947;146;856317;-63
2021/04/15 12:14:50;;;;;;;10.78;8.28;;;;;;;16.72;37.94;99322.81;359936;148;856557;-62
2021/04/15 12:16:17;;;;;;;12.01;6.72;;;;;;;16.72;38.60;99323.64;364115;147;856378;-61
2021/04/15 12:17:33;;;;;;;10.15;7.52;;;;;;;16.61;38.77;99325.88;362749;146;864047;-62
2021/04/15 12:18:39;;;;;;;11.16;8.00;;;;;;;16.39;39.35;99307.64;361937;148;856224;-62
2021/04/15 12:19:47;;;;;;;18.06;7.98;;;;;;;16.23;39.79;99323.13;357366;148;856452;-62
2021/04/15 12:21:05;;;;;;;15.29;8.16;;;;;;;16.08;40.18;99327.20;358547;149;856526;-63
2021/04/15 12:22:23;;;;;;;11.61;8.42;;;;;;;15.99;40.59;99320.61;360938;148;856469;-62
2021/04/15 12:23:43;;;;;;;14.24;9.16;;;;;;;15.88;40.81;99326.24;354377;149;856340;-62
2021/04/15 12:24:49;;;;;;;;;;;;;;;15.80;41.37;99321.28;358160;149;855892;-62
2021/04/15 12:25:53;;;;;;;13.12;9.04;;;;;;;15.80;41.74;99317.84;357211;147;856438;-62
2021/04/15 12:27:10;;;;;;;12.03;8.16;;;;;;;15.85;41.97;99328.94;357544;148;856309;-62
2021/04/15 12:28:25;;;;;;;14.15;8.96;;;;;;;16.05;41.55;99325.58;358025;149;856550;-63
2021/04/15 12:29:37;;;;;;;13.77;9.57;;;;;;;16.32;40.48;99320.13;355284;149;856273;-62
2021/04/15 12:30:40;;;;;;;13.62;9.07;;;;;;;16.44;40.17;99324.00;358510;150;856435;-62
2021/04/15 12:31:49;;;;;;;15.50;10.21;;;;;;;16.56;40.26;99322.61;357945;148;856262;-62
2021/04/15 12:33:00;;;;;;;15.28;10.07;;;;;;;16.59;40.45;99322.48;357994;149;856562;-62
2021/04/15 12:34:11;;;;;;;15.81;9.71;;;;;;;16.63;40.25;99310.98;360254;148;856439;-62
2021/04/15 12:35:25;;;;;;;13.74;9.22;;;;;;;16.63;40.48;99324.05;346284;152;856452;-63
2021/04/15 12:36:30;;;;;;;13.27;7.94;;;;;;;16.62;40.44;99317.12;341117;156;856357;-62
2021/04/15 12:37:43;;;;;;;12.60;8.45;;;;;;;16.59;40.50;99323.34;342487;154;856569;-62
2021/04/15 12:38:56;;;;;;;11.02;7.71;;;;;;;16.59;40.50;99312.89;352304;152;856229;-63
2021/04/15 12:40:14;;;;;;;10.95;7.67;;;;;;;16.68;40.46;99316.85;352231;148;856576;-62
2021/04/15 12:41:16;;;;;;;12.41;7.43;;;;;;;16.79;40.25;99312.00;355071;148;856295;-62
2021/04/15 12:42:20;;;;;;;11.43;8.19;;;;;;;16.88;40.32;99317.74;359356;147;856239;-62
2021/04/15 12:43:30;;;;;;;14.36;10.09;;;;;;;16.96;40.33;99317.41;360074;148;856272;-62
2021/04/15 12:44:33;;;;;;;13.78;7.72;;;;;;;17.23;40.34;99317.98;362757;148;856463;-63
2021/04/15 12:45:46;;;;;;;12.01;8.38;;;;;;;17.92;38.94;99307.80;357791;148;864112;-62
2021/04/15 12:46:49;;;;;;;8.84;6.46;;;;;;;18.96;37.36;99313.95;359011;149;856260;-62
2021/04/15 12:47:50;;;;;;;7.59;5.94;;;;;;;20.35;35.91;99309.03;359222;149;856413;-62
2021/04/15 12:48:56;;;;;;;12.00;7.70;;;;;;;21.29;33.41;99305.16;358561;148;864224;-62
2021/04/15 12:49:58;;;;;;;11.25;8.13;;;;;;;22.32;32.60;99310.84;358781;148;863922;-62
2021/04/15 12:51:00;;;;;;;9.04;6.72;;;;;;;23.49;31.37;99313.44;359025;149;856343;-62
2021/04/15 12:52:07;;;;;;;10.77;8.50;;;;;;;23.97;28.82;99311.78;359699;148;856587;-62
2021/04/15 12:53:07;;;;;;;12.72;8.20;;;;;;;24.40;28.74;99316.52;359394;149;856459;-62
2021/04/15 12:54:14;;;;;;;9.46;7.34;;;;;;;24.16;29.06;99303.33;358614;149;856403;-62
2021/04/15 12:55:18;;;;;;;8.32;6.11;;;;;;;24.93;28.33;99313.38;356205;148;864538;-62
2021/04/15 12:56:27;;;;;;;10.09;6.65;;;;;;;25.47;26.99;99307.45;359260;149;856363;-62
2021/04/15 12:57:30;;;;;;;12.79;6.95;;;;;;;25.16;26.31;99310.71;357311;148;856678;-62
2021/04/15 12:58:32;;;;;;;10.27;7.26;;;;;;;24.51;27.28;99302.48;359881;149;856422;-62
2021/04/15 12:59:37;;;;;;;13.06;8.95;;;;;;;23.82;27.79;99317.22;349820;151;863880;-62
2021/04/15 13:00:43;;;;;;;8.45;6.26;;;;;;;23.18;28.70;99312.97;340423;156;863841;-62
2021/04/15 13:01:45;;;;;;;10.22;6.96;;;;;;;22.53;29.65;99307.73;340661;155;856250;-63
2021/04/15 13:02:47;;;;;;;9.85;7.44;;;;;;;22.00;30.31;99305.07;345793;155;857097;-62
2021/04/15 13:03:50;;;;;;;11.11;7.17;;;;;;;21.34;31.03;99321.52;343765;153;856407;-62
2021/04/15 13:05:01;;;;;;;14.12;9.02;;;;;;;20.75;31.92;99316.33;340024;154;856425;-62
2021/04/15 13:06:06;;;;;;;13.55;8.59;;;;;;;19.99;32.95;99319.78;330518;159;856609;-62
2021/04/15 13:07:17;;;;;;;14.01;9.38;;;;;;;19.20;34.49;99321.47;340685;155;856646;-62
2021/04/15 13:08:37;;;;;;;12.70;9.43;;;;;;;18.79;35.23;99320.07;339682;157;856583;-62
2021/04/15 13:09:41;;;;;;;12.09;8.99;;;;;;;18.39;35.86;99317.72;340020;156;856990;-62
2021/04/15 13:10:43;;;;;;;10.60;7.62;;;;;;;18.13;36.30;99321.66;344951;154;863971;-62
2021/04/15 13:11:45;;;;;;;8.54;7.06;;;;;;;18.01;36.80;99316.99;344471;154;864034;-62
2021/04/15 13:12:50;;;;;;;11.47;7.54;;;;;;;17.79;37.03;99307.53;345010;153;856576;-62
2021/04/15 13:13:56;;;;;;;17.11;8.28;;;;;;;17.72;37.20;99319.22;343534;154;863887;-62
2021/04/15 13:14:59;;;;;;;11.33;7.98;;;;;;;17.76;37.18;99307.68;346933;153;856357;-62
2021/04/15 13:16:03;;;;;;;10.76;7.51;;;;;;;18.04;36.82;99312.47;345366;156;856354;-62
2021/04/15 13:17:05;;;;;;;12.34;9.26;;;;;;;18.19;36.55;99320.48;345315;154;856395;-62
2021/04/15 13:18:07;;;;;;;13.36;7.72;;;;;;;18.25;36.44;99317.56;345141;153;856315;-61
2021/04/15 13:19:21;;;;;;;13.18;8.79;;;;;;;18.19;36.81;99315.25;338725;158;864005;-61
2021/04/15 13:20:28;;;;;;;12.37;8.37;;;;;;;18.06;37.07;99315.02;340797;155;856532;-62
2021/04/15 13:21:34;;;;;;;11.12;8.00;;;;;;;17.88;37.64;99316.73;344799;153;856829;-62
2021/04/15 13:22:38;;;;;;;13.04;8.37;;;;;;;17.66;37.81;99313.36;344836;155;856244;-61
2021/04/15 13:23:41;;;;;;;13.10;9.19;;;;;;;17.34;38.35;99322.70;343564;153;856314;-62
2021/04/15 13:24:50;;;;;;;11.58;7.11;;;;;;;16.97;39.28;99314.78;345107;155;864082;-62
2021/04/15 13:25:55;;;;;;;12.42;8.87;;;;;;;16.83;39.55;99315.34;344098;154;856320;-62
2021/04/15 13:27:18;;;;;;;12.57;7.74;;;;;;;16.70;40.10;99315.02;347252;153;856895;-62
2021/04/15 13:28:42;;;;;;;9.68;6.77;;;;;;;16.59;40.19;99322.48;339292;155;856575;-62
2021/04/15 13:29:50;;;;;;;10.75;8.15;;;;;;;16.44;40.32;99314.37;340234;155;856282;-63
2021/04/15 13:31:00;;;;;;;13.11;7.98;;;;;;;16.16;40.99;99319.90;327251;157;857083;-62
2021/04/15 13:32:02;;;;;;;;;;;;;;;16.03;41.39;99325.63;342538;156;856045;-62
2021/04/15 13:33:12;;;;;;;12.16;7.26;;;;;;;15.96;41.34;99321.56;340798;155;856987;-62
2021/04/15 13:34:20;;;;;;;9.56;6.71;;;;;;;15.88;41.70;99315.80;344771;154;863979;-62
2021/04/15 13:35:26;;;;;;;10.04;7.48;;;;;;;15.82;41.39;99322.06;345958;152;856281;-62
2021/04/15 13:36:28;;;;;;;10.09;7.01;;;;;;;15.69;41.73;99315.64;340449;156;856281;-62
2021/04/15 13:37:42;;;;;;;10.71;5.97;;;;;;;15.61;41.97;99324.62;338103;157;856470;-62
2021/04/15 13:38:57;;;;;;;10.29;6.89;;;;;;;15.55;42.13;99330.07;347242;152;857067;-62
2021/04/15 13:40:17;;;;;;;10.77;6.79;;;;;;;15.42;42.25;99319.27;344820;155;857001;-62
2021/04/15 13:41:27;;;;;;;9.15;6.80;;;;;;;15.32;42.60;99328.33;343073;154;856849;-62
2021/04/15 13:42:33;;;;;;;10.72;7.08;;;;;;;15.19;43.34;99327.95;343382;153;857046;-62
2021/04/15 13:43:46;;;;;;;10.97;7.46;;;;;;;15.05;43.24;99325.83;343245;154;856343;-62
2021/04/15 13:44:51;;;;;;;12.76;7.39;;;;;;;14.97;43.42;99323.52;343149;153;857190;-61
2021/04/15 13:45:54;;;;;;;10.42;7.17;;;;;;;14.90;43.59;99329.86;343201;154;856360;-62
2021/04/15 13:46:56;;;;;;;11.67;7.68;;;;;;;14.76;43.80;99327.73;345116;153;856602;-61
2021/04/15 13:47:58;;;;;;;10.59;6.76;;;;;;;14.67;43.87;99328.03;340269;158;857106;-62
2021/04/15 13:49:20;;;;;;;10.56;7.39;;;;;;;14.59;44.02;99329.14;342068;156;863915;-62
2021/04/15 13:50:21;;;;;;;10.48;7.20;;;;;;;14.54;44.17;99327.58;339642;155;864104;-62
2021/04/15 13:51:31;;;;;;;13.33;7.31;;;;;;;14.33;45.27;99334.39;340682;156;856993;-62
2021/04/15 13:52:34;;;;;;;10.27;6.86;;;;;;;14.21;45.53;99333.86;347675;151;863934;-63
2021/04/15 13:53:49;;;;;;;9.90;7.38;;;;;;;14.03;46.01;99338.77;348719;151;856941;-62
2021/04/15 13:54:51;;;;;;;7.45;6.60;;;;;;;14.03;46.01;99338.77;355124;150;856206;-62
2021/04/15 13:55:55;;;;;;;9.90;6.62;;;;;;;13.90;46.78;99334.86;353940;150;856221;-62
2021/04/15 13:57:13;;;;;;;12.36;7.50;;;;;;;13.71;47.21;99340.63;354073;150;856296;-62
2021/04/15 13:58:32;;;;;;;11.15;7.28;;;;;;;13.70;47.23;99325.05;354095;150;856443;-62
2021/04/15 13:59:48;;;;;;;9.41;7.28;;;;;;;13.47;48.01;99336.17;353238;151;856574;-62
2021/04/15 14:00:50;;;;;;;9.08;6.89;;;;;;;13.47;47.98;99331.81;353805;149;856888;-62
2021/04/15 14:01:53;;;;;;;8.37;7.05;;;;;;;13.56;48.27;99335.90;354028;149;856798;-62
2021/04/15 14:02:55;;;;;;;9.90;6.41;;;;;;;13.61;48.23;99330.55;351437;152;856590;-62
2021/04/15 14:03:57;;;;;;;8.86;7.04;;;;;;;13.50;48.38;99333.48;352638;149;864025;-62
2021/04/15 14:05:01;;;;;;;7.91;6.75;;;;;;;13.50;48.38;99333.48;352899;150;863933;-62
2021/04/15 14:06:06;;;;;;;8.89;6.35;;;;;;;13.50;48.73;99331.72;353090;150;863906;-62
2021/04/15 14:07:34;;;;;;;9.54;6.86;;;;;;;13.49;48.45;99332.62;352466;149;863961;-62
2021/04/15 14:08:48;;;;;;;10.58;6.21;;;;;;;13.53;48.14;99329.03;352828;150;856224;-62
2021/04/15 14:09:50;;;;;;;8.88;6.32;;;;;;;13.61;47.68;99325.34;354965;150;856587;-63
2021/04/15 14:10:52;;;;;;;9.73;6.30;;;;;;;13.57;47.62;99327.20;353788;149;856522;-62
2021/04/15 14:11:55;;;;;;;9.04;7.00;;;;;;;13.60;47.93;99329.70;341145;155;864143;-62
2021/04/15 14:13:01;;;;;;;8.93;6.11;;;;;;;13.59;47.37;99328.84;341174;151;864018;-62
2021/04/15 14:14:06;;;;;;;7.19;5.96;;;;;;;13.59;47.07;99326.23;355366;150;856730;-63
2021/04/15 14:15:37;;;;;;;7.73;5.96;;;;;;;13.51;46.73;99325.63;355494;151;856293;-62
2021/04/15 14:16:40;;;;;;;7.17;5.77;;;;;;;13.48;47.26;99325.71;354169;149;856957;-62
2021/04/15 14:17:41;;;;;;;8.11;5.81;;;;;;;13.61;47.71;99327.94;347001;153;857086;-62
2021/04/15 14:18:44;;;;;;;8.91;6.44;;;;;;;13.68;47.38;99324.25;347227;151;863906;-63
2021/04/15 14:19:46;;;;;;;8.78;5.53;;;;;;;13.81;47.47;99320.40;354532;149;864266;-62
2021/04/15 14:20:51;;;;;;;8.59;6.37;;;;;;;13.96;47.04;99326.85;352298;149;856715;-62
2021/04/15 14:21:53;;;;;;;9.76;5.76;;;;;;;14.05;46.65;99330.06;353380;149;856517;-62
2021/04/15 14:22:55;;;;;;;9.43;6.46;;;;;;;14.11;46.67;99322.92;353235;149;856356;-62
2021/04/15 14:24:03;;;;;;;11.84;6.57;;;;;;;13.91;46.37;99326.15;353738;149;856268;-62
2021/04/15 14:25:12;;;;;;;7.83;5.75;;;;;;;14.05;46.53;99330.06;353277;149;863836;-62
2021/04/15 14:26:29;;;;;;;9.25;6.47;;;;;;;14.19;46.54;99327.02;354080;150;856532;-62
2021/04/15 14:27:33;;;;;;;7.69;5.77;;;;;;;14.22;46.06;99334.73;353934;149;856378;-63
2021/04/15 14:28:36;;;;;;;11.44;6.04;;;;;;;14.35;45.09;99328.21;347878;152;856281;-63
2021/04/15 14:29:39;;;;;;;7.01;5.55;;;;;;;14.49;44.79;99329.50;350014;152;856335;-62
2021/04/15 14:30:42;;;;;;;8.47;5.74;;;;;;;14.52;43.79;99324.18;353989;150;856984;-62
2021/04/15 14:31:47;;;;;;;7.61;5.26;;;;;;;14.69;43.67;99327.05;346707;154;856334;-63
2021/04/15 14:32:49;;;;;;;8.89;5.24;;;;;;;15.02;44.35;99329.42;347454;152;863708;-62
2021/04/15 14:33:51;;;;;;;8.52;5.46;;;;;;;15.41;41.97;99329.75;347190;153;856472;-62
2021/04/15 14:34:58;;;;;;;7.57;5.03;;;;;;;15.43;42.18;99328.80;345873;153;856803;-62
2021/04/15 14:36:00;;;;;;;10.59;5.47;;;;;;;15.84;41.94;99324.63;346229;152;856887;-62
2021/04/15 14:37:06;;;;;;;7.49;4.81;;;;;;;16.28;41.71;99329.84;340053;157;856324;-62
2021/04/15 14:38:07;;;;;;;6.77;4.91;;;;;;;16.25;40.08;99329.13;339408;153;863756;-62
2021/04/15 14:39:13;;;;;;;6.23;4.93;;;;;;;16.43;40.06;99325.75;347386;152;856421;-62
2021/04/15 14:40:45;;;;;;;7.00;5.14;;;;;;;16.72;40.52;99320.20;349164;154;856844;-62
2021/04/15 14:41:53;;;;;;;7.13;4.98;;;;;;;17.14;39.88;99323.63;344964;152;856992;-62
2021/04/15 14:42:54;;;;;;;;;;;;;;;17.21;38.36;99325.05;349490;154;855687;-62
2021/04/15 14:44:17;;;;;;;7.16;4.85;;;;;;;16.58;39.47;99320.78;347349;154;856446;-62
2021/04/15 14:45:22;;;;;;;6.14;4.77;;;;;;;16.37;40.17;99326.00;346420;152;856371;-61
2021/04/15 14:46:32;;;;;;;7.36;5.22;;;;;;;16.15;40.72;99324.29;345054;152;856432;-61
2021/04/15 14:47:39;;;;;;;7.88;5.21;;;;;;;15.78;40.98;99318.75;344900;152;856624;-61
2021/04/15 14:48:41;;;;;;;6.23;5.09;;;;;;;15.57;41.63;99325.64;340810;156;856761;-61
2021/04/15 14:49:45;;;;;;;6.67;5.51;;;;;;;15.45;42.37;99321.77;342365;154;856308;-61
2021/04/15 14:50:47;;;;;;;7.08;5.30;;;;;;;15.37;42.54;99322.95;339542;155;856372;-61
